Time;durP1;ratioP1;P1;durP2;ratioP2;P2;SDS_P1;SDS_P2;PMS_P1;PMS_P2;Temp;Humidity;BMP_temperature;BMP_pressure;BME280_temperature;BME280_humidity;BME280_pressure;Samples;Min_cycle;Max_cycle;Signal;HPM_P1;HPM_P2
2022/04/19 00:00:47;;;;;;;9.75;5.43;;;6.20;90.70;;;;;;5052300;28;20095;-38
2022/04/19 00:03:14;;;;;;;8.00;4.90;;;6.10;91.20;;;;;;5052132;28;20047;-38
2022/04/19 00:05:41;;;;;;;7.20;5.43;;;6.60;92.10;;;;;;5051069;28;20080;-38
2022/04/19 00:08:09;;;;;;;7.40;5.35;;;5.90;92.50;;;;;;5052259;28;20041;-38
2022/04/19 00:10:35;;;;;;;6.82;4.90;;;5.70;93.10;;;;;;5050813;28;20040;-38
2022/04/19 00:13:03;;;;;;;8.65;5.65;;;6.60;95.60;;;;;;5051719;28;20074;-38
2022/04/19 00:15:29;;;;;;;7.45;4.80;;;5.50;95.40;;;;;;5051787;28;20081;-38
2022/04/19 00:17:59;;;;;;;8.32;5.90;;;5.60;95.40;;;;;;5051615;28;20036;-38
2022/04/19 00:20:26;;;;;;;9.82;5.97;;;5.80;98.00;;;;;;5051825;28;20119;-38
2022/04/19 00:22:52;;;;;;;8.55;5.20;;;5.40;97.90;;;;;;5051781;28;20064;-38
2022/04/19 00:25:18;;;;;;;10.88;6.30;;;5.30;98.90;;;;;;5051634;28;20061;-38
2022/04/19 00:27:44;;;;;;;11.07;6.13;;;5.90;99.60;;;;;;5051684;28;20470;-38
2022/04/19 00:30:11;;;;;;;9.48;5.53;;;5.10;99.50;;;;;;5033384;28;20037;-39
2022/04/19 00:32:37;;;;;;;9.70;6.53;;;4.90;99.70;;;;;;5051206;28;20044;-38
2022/04/19 00:35:09;;;;;;;10.23;6.30;;;4.90;99.90;;;;;;5051254;28;20680;-38
2022/04/19 00:37:36;;;;;;;9.73;6.43;;;4.80;99.90;;;;;;5051604;28;20037;-38
2022/04/19 00:40:06;;;;;;;9.73;6.78;;;4.90;99.90;;;;;;5051455;28;20037;-38
2022/04/19 00:42:33;;;;;;;11.05;6.68;;;4.80;99.90;;;;;;5051240;28;20041;-38
2022/04/19 00:45:03;;;;;;;11.00;6.40;;;5.50;99.90;;;;;;5051194;28;20190;-38
2022/04/19 00:47:38;;;;;;;9.07;4.90;;;4.80;99.90;;;;;;5050614;28;20056;-38
2022/04/19 00:50:05;;;;;;;9.52;6.43;;;4.60;99.90;;;;;;5051091;28;20399;-38
2022/04/19 00:52:33;;;;;;;9.68;6.25;;;4.50;99.90;;;;;;5051101;28;20076;-38
2022/04/19 00:55:01;;;;;;;11.40;7.28;;;4.50;99.90;;;;;;5050643;28;20040;-38
2022/04/19 00:57:28;;;;;;;9.82;5.68;;;5.00;99.90;;;;;;5050825;28;20037;-38
2022/04/19 00:59:58;;;;;;;14.65;7.38;;;4.40;99.90;;;;;;5049984;28;20123;-38
2022/04/19 01:02:24;;;;;;;11.23;6.32;;;4.40;99.90;;;;;;5051543;28;20037;-38
2022/04/19 01:04:50;;;;;;;11.55;7.25;;;4.30;99.90;;;;;;5051515;28;20056;-38
2022/04/19 01:07:18;;;;;;;11.98;7.80;;;4.40;99.90;;;;;;5051082;28;20071;-38
2022/04/19 01:09:45;;;;;;;11.88;7.45;;;;;;;;;;5050924;28;20049;-38
2022/04/19 01:14:56;;;;;;;13.38;7.55;;;4.20;99.90;;;;;;5050274;28;20117;-38
2022/04/19 01:17:23;;;;;;;10.70;6.65;;;4.90;99.90;;;;;;5050524;28;20056;-38
2022/04/19 01:19:50;;;;;;;13.25;7.45;;;4.10;99.90;;;;;;5050571;28;20045;-38
2022/04/19 01:22:15;;;;;;;9.93;6.78;;;4.10;99.90;;;;;;5049941;28;20045;-38
2022/04/19 01:24:44;;;;;;;9.45;6.70;;;4.00;99.90;;;;;;5050150;28;20090;-38
2022/04/19 01:27:13;;;;;;;11.30;7.03;;;3.70;99.90;;;;;;5049978;28;20147;-38
2022/04/19 01:29:39;;;;;;;10.90;8.07;;;3.80;99.90;;;;;;5049244;28;20565;-38
2022/04/19 01:32:07;;;;;;;12.25;7.32;;;3.90;99.90;;;;;;5049694;28;20534;-38
2022/04/19 01:34:33;;;;;;;10.18;6.80;;;3.80;99.90;;;;;;5049753;28;20049;-38
2022/04/19 01:36:59;;;;;;;10.13;7.20;;;3.70;99.90;;;;;;5049756;28;20041;-38
2022/04/19 01:42:09;;;;;;;11.73;7.63;;;3.60;99.90;;;;;;5049603;28;20956;-38
2022/04/19 01:44:38;;;;;;;9.35;7.03;;;3.50;99.90;;;;;;5050105;28;20045;-38
2022/04/19 01:47:07;;;;;;;9.77;7.18;;;3.50;99.90;;;;;;5049667;28;20481;-39
2022/04/19 01:49:36;;;;;;;12.77;7.85;;;3.40;99.90;;;;;;5049591;28;20076;-38
2022/04/19 01:52:03;;;;;;;9.68;6.80;;;3.30;99.90;;;;;;5049751;28;20041;-38
2022/04/19 01:54:30;;;;;;;9.95;6.80;;;3.30;99.90;;;;;;5049985;28;20041;-38
2022/04/19 01:56:56;;;;;;;11.80;7.55;;;3.20;99.90;;;;;;5049664;28;20506;-38
2022/04/19 01:59:21;;;;;;;10.05;7.10;;;3.20;99.90;;;;;;5048468;28;20037;-38
2022/04/19 02:01:48;;;;;;;8.85;6.45;;;3.20;99.90;;;;;;5049550;28;20681;-38
2022/04/19 02:04:15;;;;;;;9.98;7.22;;;3.10;99.90;;;;;;5049475;28;20044;-38
2022/04/19 02:06:41;;;;;;;10.45;6.72;;;2.70;99.90;;;;;;5048252;28;20547;-38
2022/04/19 02:09:07;;;;;;;9.23;7.05;;;2.90;99.90;;;;;;5049188;28;20128;-39
2022/04/19 02:11:33;;;;;;;11.60;8.43;;;2.90;99.90;;;;;;5049357;28;20060;-38
2022/04/19 02:13:59;;;;;;;10.98;7.72;;;2.80;99.90;;;;;;5049373;28;20041;-38
2022/04/19 02:16:25;;;;;;;11.20;7.38;;;2.80;99.90;;;;;;5049410;28;20041;-39
2022/04/19 02:18:50;;;;;;;15.35;9.32;;;2.70;99.90;;;;;;5049477;28;20045;-39
2022/04/19 02:21:16;;;;;;;12.00;8.77;;;2.80;99.90;;;;;;5049236;28;20058;-38
2022/04/19 02:23:42;;;;;;;12.05;8.90;;;2.70;99.90;;;;;;5049401;28;20075;-38
2022/04/19 02:26:08;;;;;;;14.00;9.50;;;2.70;99.90;;;;;;5049022;28;20053;-38
2022/04/19 02:28:34;;;;;;;14.82;9.80;;;2.80;99.90;;;;;;5048797;28;20085;-38
2022/04/19 02:30:59;;;;;;;12.80;9.38;;;2.80;99.90;;;;;;5048185;28;20044;-38
2022/04/19 02:33:25;;;;;;;16.27;10.00;;;2.80;99.90;;;;;;5047229;28;20094;-38
2022/04/19 02:35:52;;;;;;;14.75;9.82;;;2.60;99.90;;;;;;5048865;28;20065;-38
2022/04/19 02:38:18;;;;;;;23.48;13.75;;;2.70;99.90;;;;;;5048817;28;20063;-38
2022/04/19 02:40:44;;;;;;;24.65;13.77;;;2.70;99.90;;;;;;5048965;28;20773;-38
2022/04/19 02:43:11;;;;;;;25.83;14.77;;;2.80;99.90;;;;;;5048885;28;20120;-38
2022/04/19 02:45:36;;;;;;;24.67;13.73;;;2.80;99.90;;;;;;5049114;28;20048;-38
2022/04/19 02:48:06;;;;;;;20.52;13.07;;;2.80;99.90;;;;;;5048828;28;20052;-38
2022/04/19 02:50:33;;;;;;;23.77;14.05;;;2.80;99.90;;;;;;5048799;28;20051;-38
2022/04/19 02:53:01;;;;;;;25.10;14.98;;;2.70;99.90;;;;;;5048394;28;20483;-38
2022/04/19 02:55:27;;;;;;;21.27;13.35;;;2.80;99.90;;;;;;5047243;28;20057;-38
2022/04/19 02:57:53;;;;;;;25.27;13.98;;;2.90;99.90;;;;;;5048774;28;20053;-38
2022/04/19 03:00:20;;;;;;;17.58;12.45;;;2.80;99.90;;;;;;5048746;28;20442;-38
2022/04/19 03:02:46;;;;;;;22.23;13.27;;;2.80;99.90;;;;;;5048671;28;20044;-38
2022/04/19 03:05:12;;;;;;;18.70;10.68;;;2.70;99.90;;;;;;5048560;28;20164;-38
2022/04/19 03:07:38;;;;;;;14.82;9.27;;;2.60;99.90;;;;;;5048646;28;20124;-38
2022/04/19 03:10:04;;;;;;;17.58;10.60;;;2.70;99.90;;;;;;5048467;28;20049;-38
2022/04/19 03:12:29;;;;;;;17.00;9.98;;;2.60;99.90;;;;;;5047057;28;20049;-38
2022/04/19 03:14:55;;;;;;;17.02;10.35;;;2.50;99.90;;;;;;5048116;28;20159;-38
2022/04/19 03:17:21;;;;;;;22.45;11.98;;;2.40;99.90;;;;;;5048106;28;20041;-38
2022/04/19 03:19:46;;;;;;;19.65;11.88;;;2.50;99.90;;;;;;5048161;28;20037;-38
2022/04/19 03:22:12;;;;;;;17.73;11.30;;;2.40;99.90;;;;;;5048361;28;20802;-38
2022/04/19 03:30:08;;;;;;;23.45;14.95;;;2.70;99.90;;;;;;5047453;28;20095;-38
2022/04/19 03:32:33;;;;;;;16.00;10.30;;;2.80;99.90;;;;;;5048191;28;20053;-38
2022/04/19 03:34:59;;;;;;;20.75;12.27;;;2.60;99.90;;;;;;5047958;28;20446;-38
2022/04/19 03:37:25;;;;;;;21.33;10.93;;;2.60;99.90;;;;;;5047994;28;20036;-38
2022/04/19 03:39:50;;;;;;;19.38;12.00;;;2.60;99.90;;;;;;5048504;28;20120;-38
2022/04/19 03:42:16;;;;;;;19.33;12.68;;;2.60;99.90;;;;;;5048344;28;20073;-38
2022/04/19 03:44:41;;;;;;;17.58;11.38;;;2.40;99.90;;;;;;5048415;28;20051;-38
2022/04/19 03:47:07;;;;;;;19.35;12.02;;;2.70;99.90;;;;;;5048512;28;20041;-38
2022/04/19 03:49:34;;;;;;;17.83;11.00;;;2.60;99.90;;;;;;5047950;28;20045;-38
2022/04/19 03:52:01;;;;;;;20.90;11.80;;;2.70;99.90;;;;;;5048662;28;20033;-38
2022/04/19 03:54:27;;;;;;;19.27;11.02;;;2.80;99.90;;;;;;5047996;28;20047;-38
2022/04/19 03:56:53;;;;;;;23.67;12.32;;;2.90;99.90;;;;;;5048963;28;20132;-38
2022/04/19 03:59:18;;;;;;;17.02;11.55;;;2.90;99.90;;;;;;5047289;28;20029;-38
2022/04/19 04:01:44;;;;;;;21.45;12.40;;;2.90;99.90;;;;;;5048200;28;20033;-38
2022/04/19 04:04:10;;;;;;;17.48;11.43;;;3.00;99.90;;;;;;5048013;28;20531;-39
2022/04/19 04:06:37;;;;;;;18.50;12.55;;;3.00;99.90;;;;;;5047988;28;20041;-38
2022/04/19 04:09:04;;;;;;;19.50;11.63;;;2.90;99.90;;;;;;5048092;28;20037;-38
2022/04/19 04:11:29;;;;;;;20.20;12.50;;;2.90;99.90;;;;;;5027932;28;20043;-38
2022/04/19 04:13:55;;;;;;;18.00;11.13;;;2.90;99.90;;;;;;5028222;28;20132;-38
2022/04/19 04:16:21;;;;;;;17.58;11.00;;;2.90;99.90;;;;;;5045549;28;20123;-38
2022/04/19 04:18:47;;;;;;;17.75;10.02;;;3.00;99.90;;;;;;5048267;28;20049;-38
2022/04/19 04:21:12;;;;;;;16.90;11.77;;;3.00;99.90;;;;;;5031286;28;20040;-39
2022/04/19 04:23:38;;;;;;;18.50;11.68;;;3.10;99.90;;;;;;5037710;28;20033;-38
2022/04/19 04:26:04;;;;;;;18.08;11.93;;;3.10;99.90;;;;;;5048619;28;20061;-38
2022/04/19 04:28:29;;;;;;;17.17;10.82;;;3.00;99.90;;;;;;5046595;28;20047;-37
2022/04/19 04:30:55;;;;;;;18.52;12.07;;;2.90;99.90;;;;;;5045021;28;20106;-42
2022/04/19 04:33:21;;;;;;;16.10;10.73;;;2.80;99.90;;;;;;5047529;28;20033;-40
2022/04/19 04:35:47;;;;;;;19.25;11.55;;;2.80;99.90;;;;;;5045925;28;20045;-40
2022/04/19 04:38:22;;;;;;;19.45;11.90;;;2.70;99.90;;;;;;5046701;28;20087;-42
2022/04/19 04:40:48;;;;;;;20.20;11.20;;;2.80;99.90;;;;;;5047670;28;20032;-40
2022/04/19 04:43:13;;;;;;;17.30;11.05;;;2.90;99.90;;;;;;5048089;28;20035;-40
2022/04/19 04:45:45;;;;;;;17.02;10.82;;;2.80;99.90;;;;;;5046207;28;20037;-39
2022/04/19 04:50:55;;;;;;;15.40;11.38;;;3.00;99.90;;;;;;5046722;28;20056;-35
2022/04/19 04:53:22;;;;;;;28.02;11.88;;;3.10;99.90;;;;;;5045926;28;20037;-35
2022/04/19 04:55:47;;;;;;;17.65;11.20;;;3.70;99.90;;;;;;5044497;28;20048;-35
2022/04/19 04:58:25;;;;;;;20.55;11.25;;;3.20;99.90;;;;;;5045525;28;20045;-35
2022/04/19 05:00:51;;;;;;;16.05;10.50;;;3.80;99.90;;;;;;5045993;28;20039;-35
2022/04/19 05:03:16;;;;;;;17.17;10.38;;;3.30;99.90;;;;;;5043706;28;20029;-35
2022/04/19 05:05:42;;;;;;;18.40;10.35;;;3.30;99.90;;;;;;5047204;28;20067;-37
2022/04/19 05:08:10;;;;;;;19.35;10.43;;;3.60;99.90;;;;;;5051275;28;20476;-35
2022/04/19 05:10:35;;;;;;;14.32;9.95;;;3.70;99.90;;;;;;5050478;28;20059;-36
2022/04/19 05:13:01;;;;;;;19.48;10.48;;;3.80;99.90;;;;;;5050776;28;20040;-35
2022/04/19 05:15:27;;;;;;;14.93;9.15;;;4.70;99.90;;;;;;5049693;28;20055;-35
2022/04/19 05:17:52;;;;;;;20.90;10.55;;;6.00;99.90;;;;;;5050387;28;20036;-36
2022/04/19 05:20:18;;;;;;;14.70;8.98;;;7.30;99.90;;;;;;5050402;28;20045;-36
2022/04/19 05:22:44;;;;;;;13.00;8.60;;;8.50;99.90;;;;;;5050290;28;20476;-36
2022/04/19 05:25:09;;;;;;;23.30;8.25;;;9.40;99.90;;;;;;5050450;28;20743;-36
2022/04/19 05:27:35;;;;;;;11.32;7.57;;;9.10;99.90;;;;;;5050109;28;20404;-36
2022/04/19 05:30:01;;;;;;;11.65;7.32;;;10.70;99.90;;;;;;5050518;28;20079;-36
2022/04/19 05:32:27;;;;;;;12.88;7.47;;;11.20;99.90;;;;;;5030918;28;20037;-36
2022/04/19 05:34:53;;;;;;;11.93;6.25;;;12.10;98.60;;;;;;5030150;28;20049;-36
2022/04/19 05:37:19;;;;;;;11.45;6.95;;;12.90;95.90;;;;;;5030166;28;20526;-36
2022/04/19 05:39:44;;;;;;;10.70;7.30;;;13.40;93.70;;;;;;5029925;28;20037;-36
2022/04/19 05:42:11;;;;;;;12.75;7.40;;;14.10;91.70;;;;;;5030341;28;20041;-36
2022/04/19 05:44:37;;;;;;;13.35;7.40;;;14.90;88.60;;;;;;5029915;28;20041;-37
2022/04/19 05:47:04;;;;;;;10.32;6.38;;;15.50;86.00;;;;;;5030351;28;20073;-37
2022/04/19 05:49:30;;;;;;;11.23;6.68;;;16.10;82.00;;;;;;5029834;28;20041;-37
2022/04/19 05:51:55;;;;;;;13.10;6.13;;;16.60;78.70;;;;;;5029632;28;20041;-37
2022/04/19 05:54:21;;;;;;;9.68;5.82;;;17.10;76.60;;;;;;5029684;28;20044;-37
2022/04/19 05:56:47;;;;;;;14.65;6.75;;;17.40;74.20;;;;;;5029562;28;20046;-37
2022/04/19 05:59:12;;;;;;;12.40;6.72;;;17.80;72.20;;;;;;5029851;28;20046;-37
2022/04/19 06:07:07;;;;;;;11.00;6.32;;;19.00;66.90;;;;;;5049132;28;20055;-37
2022/04/19 06:09:32;;;;;;;16.77;6.40;;;19.30;65.70;;;;;;5048957;28;20044;-37
2022/04/19 06:12:00;;;;;;;10.98;6.43;;;18.90;64.90;;;;;;5048766;28;20044;-37
2022/04/19 06:14:26;;;;;;;10.85;6.28;;;19.20;65.00;;;;;;5045435;28;20550;-38
2022/04/19 06:16:52;;;;;;;9.70;6.20;;;19.70;63.70;;;;;;5048168;28;20063;-38
2022/04/19 06:19:17;;;;;;;13.98;7.32;;;20.30;62.30;;;;;;5048609;28;20040;-37
2022/04/19 06:21:45;;;;;;;12.77;5.88;;;20.90;61.20;;;;;;5048484;28;20076;-37
2022/04/19 06:24:10;;;;;;;10.05;5.97;;;21.10;59.90;;;;;;5048290;28;20049;-37
2022/04/19 06:26:36;;;;;;;13.68;6.50;;;21.70;59.00;;;;;;5048264;28;20053;-38
2022/04/19 06:29:03;;;;;;;14.93;6.63;;;22.20;57.80;;;;;;5048731;28;20053;-37
2022/04/19 06:31:28;;;;;;;11.95;6.05;;;22.40;56.40;;;;;;5046085;28;20040;-38
2022/04/19 06:33:54;;;;;;;8.77;5.68;;;22.90;55.50;;;;;;5048863;28;20048;-38
2022/04/19 06:36:20;;;;;;;10.18;5.35;;;23.40;54.80;;;;;;5046922;28;20056;-38
2022/04/19 06:38:45;;;;;;;10.18;5.75;;;23.60;53.80;;;;;;5048608;28;20033;-38
2022/04/19 06:41:11;;;;;;;8.38;5.97;;;23.70;52.50;;;;;;5048328;28;20036;-38
2022/04/19 06:43:37;;;;;;;10.57;5.93;;;23.60;51.70;;;;;;5048439;28;20045;-35
2022/04/19 06:46:02;;;;;;;7.75;5.03;;;23.60;51.80;;;;;;5048192;28;20056;-38
2022/04/19 06:48:29;;;;;;;10.43;5.43;;;24.10;51.50;;;;;;5049052;28;20080;-36
2022/04/19 06:50:55;;;;;;;7.07;5.15;;;23.80;50.90;;;;;;5048660;28;20447;-35
2022/04/19 06:53:20;;;;;;;8.70;5.25;;;23.70;51.30;;;;;;5048493;28;20530;-36
2022/04/19 06:55:46;;;;;;;9.77;5.30;;;23.60;51.00;;;;;;5048024;28;20080;-36
2022/04/19 06:58:12;;;;;;;9.68;4.57;;;24.20;50.20;;;;;;5048304;28;20053;-36
2022/04/19 07:00:37;;;;;;;7.68;5.53;;;24.40;49.30;;;;;;5048211;28;20084;-36
2022/04/19 07:03:03;;;;;;;10.38;5.40;;;24.70;49.10;;;;;;5048175;28;20045;-36
2022/04/19 07:05:29;;;;;;;6.70;4.07;;;25.10;48.50;;;;;;5048204;28;20053;-36
2022/04/19 07:07:54;;;;;;;10.65;4.95;;;24.90;48.20;;;;;;5048103;28;20045;-37
2022/04/19 07:10:20;;;;;;;5.75;3.90;;;24.40;48.00;;;;;;5063415;28;20045;-36
2022/04/19 07:12:46;;;;;;;10.10;5.05;;;23.40;48.10;;;;;;5047986;28;20041;-36
2022/04/19 07:15:12;;;;;;;7.35;4.25;;;22.00;49.60;;;;;;5048030;28;20120;-36
2022/04/19 07:17:38;;;;;;;7.55;4.18;;;20.80;51.60;;;;;;5047911;28;20056;-36
2022/04/19 07:28:18;;;;;;;9.57;5.18;;;18.80;55.50;;;;;;5048059;28;20506;-34
2022/04/19 07:30:44;;;;;;;9.52;4.45;;;18.30;56.10;;;;;;5048069;28;20045;-35
2022/04/19 07:33:10;;;;;;;8.40;4.45;;;18.00;57.10;;;;;;5030728;28;20049;-35
2022/04/19 07:35:36;;;;;;;7.32;4.20;;;17.50;57.80;;;;;;5028068;28;20050;-35
2022/04/19 07:38:02;;;;;;;8.20;4.10;;;16.80;58.50;;;;;;5028041;28;20380;-35
2022/04/19 07:40:29;;;;;;;7.47;4.47;;;16.30;59.40;;;;;;5028214;28;20617;-35
2022/04/19 07:42:55;;;;;;;7.68;4.22;;;15.90;60.40;;;;;;5027645;28;20046;-35
2022/04/19 07:45:20;;;;;;;7.72;4.28;;;15.50;61.60;;;;;;5027603;28;20053;-35
2022/04/19 07:47:47;;;;;;;6.68;4.07;;;15.20;62.40;;;;;;5026362;28;20408;-34
2022/04/19 07:50:13;;;;;;;7.45;4.32;;;15.20;62.80;;;;;;5028573;28;20050;-35
2022/04/19 07:52:39;;;;;;;8.80;5.05;;;15.70;63.30;;;;;;5027966;28;20052;-35
2022/04/19 07:55:05;;;;;;;6.53;3.78;;;16.10;62.80;;;;;;5028096;28;20046;-35
2022/04/19 07:57:31;;;;;;;6.13;3.58;;;16.60;60.80;;;;;;5029528;28;20048;-34
2022/04/19 07:59:57;;;;;;;5.97;3.40;;;16.50;60.40;;;;;;5030094;28;20037;-35
2022/04/19 08:02:23;;;;;;;8.30;3.40;;;16.30;59.60;;;;;;5031408;28;20077;-35
2022/04/19 08:04:48;;;;;;;6.40;3.30;;;16.40;59.30;;;;;;5031821;28;20816;-35
2022/04/19 08:07:14;;;;;;;5.80;3.05;;;17.10;58.60;;;;;;5032091;28;20174;-35
2022/04/19 08:09:40;;;;;;;5.55;3.13;;;18.30;57.00;;;;;;5031900;28;20507;-35
2022/04/19 08:12:06;;;;;;;7.03;2.80;;;19.80;55.30;;;;;;5031990;28;20184;-35
2022/04/19 08:14:32;;;;;;;7.75;3.42;;;21.20;53.20;;;;;;5031946;28;20124;-35
2022/04/19 08:16:58;;;;;;;6.00;2.88;;;22.30;50.90;;;;;;5031505;28;20049;-35
2022/04/19 08:19:24;;;;;;;5.82;2.97;;;23.10;49.10;;;;;;5031628;28;20538;-36
2022/04/19 08:21:51;;;;;;;5.80;2.58;;;23.70;47.90;;;;;;5031733;28;20073;-36
2022/04/19 08:24:17;;;;;;;4.13;2.20;;;24.30;46.90;;;;;;5031341;28;20084;-36
2022/04/19 08:26:42;;;;;;;3.88;2.28;;;25.00;45.80;;;;;;5031052;28;20057;-36
2022/04/19 08:29:08;;;;;;;5.05;2.70;;;25.30;44.20;;;;;;5030985;28;20522;-36
2022/04/19 08:31:34;;;;;;;4.90;2.03;;;25.50;44.00;;;;;;5044131;28;20527;-36
2022/04/19 08:34:01;;;;;;;3.25;1.73;;;25.70;43.90;;;;;;5051209;28;20048;-36
2022/04/19 08:36:26;;;;;;;3.97;1.67;;;26.30;42.70;;;;;;5050909;28;20085;-36
2022/04/19 08:38:52;;;;;;;2.45;1.50;;;26.60;41.80;;;;;;5050873;28;20440;-36
2022/04/19 08:41:18;;;;;;;3.33;1.45;;;27.20;41.30;;;;;;5051422;28;20036;-36
2022/04/19 08:43:45;;;;;;;2.90;1.15;;;27.50;39.60;;;;;;5051399;28;20052;-36
2022/04/19 08:46:11;;;;;;;3.22;1.20;;;27.40;39.70;;;;;;5051416;28;20076;-36
2022/04/19 08:48:39;;;;;;;1.77;0.85;;;27.10;36.80;;;;;;5051547;28;20078;-36
2022/04/19 08:51:08;;;;;;;2.20;0.80;;;26.50;37.50;;;;;;5066465;28;20445;-36
2022/04/19 08:59:06;;;;;;;1.40;0.50;;;26.80;37.60;;;;;;5050138;28;20051;-36
2022/04/19 09:01:32;;;;;;;2.67;0.80;;;26.80;37.50;;;;;;5050365;28;20033;-36
2022/04/19 09:03:58;;;;;;;1.73;0.75;;;27.30;37.30;;;;;;5050887;28;20071;-36
2022/04/19 09:07:02;;;;;;;2.50;0.70;;;27.40;36.80;;;;;;5051271;28;20067;-36
2022/04/19 09:09:30;;;;;;;1.65;0.47;;;27.40;35.70;;;;;;5028598;28;20132;-36
2022/04/19 09:12:12;;;;;;;1.85;0.50;;;27.30;35.40;;;;;;5028882;28;20105;-36
2022/04/19 09:14:56;;;;;;;1.73;0.90;;;26.70;35.30;;;;;;5041909;28;20079;-36
2022/04/19 09:17:41;;;;;;;2.03;0.70;;;26.10;36.20;;;;;;5051316;28;20037;-36
2022/04/19 09:20:09;;;;;;;3.53;0.80;;;26.20;37.50;;;;;;5050786;28;20045;-36
2022/04/19 09:22:36;;;;;;;2.05;0.60;;;26.20;36.80;;;;;;5050752;28;20043;-36
2022/04/19 09:25:20;;;;;;;2.20;0.80;;;26.10;36.80;;;;;;5050199;28;20163;-36
2022/04/19 09:27:48;;;;;;;2.88;0.73;;;25.80;36.80;;;;;;5050304;28;20566;-36
2022/04/19 09:30:17;;;;;;;2.28;0.80;;;25.40;37.50;;;;;;5049246;28;20491;-36
2022/04/19 09:33:04;;;;;;;2.47;0.63;;;25.40;37.80;;;;;;5049088;28;20514;-36
2022/04/19 09:35:40;;;;;;;1.42;0.77;;;25.70;37.10;;;;;;5049909;28;20376;-37
2022/04/19 09:38:08;;;;;;;1.10;0.50;;;25.70;36.90;;;;;;5049750;28;20091;-37
2022/04/19 09:40:39;;;;;;;2.30;0.68;;;25.40;37.60;;;;;;5050043;28;20048;-37
2022/04/19 09:43:18;;;;;;;4.25;0.85;;;25.40;38.40;;;;;;5049742;28;20095;-36
2022/04/19 09:45:58;;;;;;;3.35;0.90;;;25.50;38.30;;;;;;5050499;28;20098;-36
2022/04/19 09:48:29;;;;;;;2.55;0.70;;;25.60;38.00;;;;;;5049736;28;20522;-36
2022/04/19 09:50:57;;;;;;;3.67;0.80;;;25.20;36.90;;;;;;5050287;28;20044;-37
2022/04/19 09:53:26;;;;;;;3.45;0.80;;;24.40;38.50;;;;;;5049799;28;20120;-37
2022/04/19 09:55:54;;;;;;;5.35;1.10;;;24.00;40.10;;;;;;5050240;28;20436;-36
2022/04/19 09:58:21;;;;;;;5.13;1.20;;;23.90;40.10;;;;;;5049535;28;20075;-36
2022/04/19 10:00:48;;;;;;;2.20;0.80;;;23.90;39.50;;;;;;5050113;28;20052;-37
2022/04/19 10:08:46;;;;;;;2.95;0.90;;;23.50;39.90;;;;;;5049244;28;20091;-36
2022/04/19 10:11:13;;;;;;;6.10;0.95;;;23.50;40.00;;;;;;5049084;28;20451;-36
2022/04/19 10:13:40;;;;;;;5.43;1.55;;;23.50;40.10;;;;;;5049639;28;20052;-36
2022/04/19 10:16:11;;;;;;;2.25;0.95;;;23.40;40.50;;;;;;5047699;28;20060;-36
2022/04/19 10:18:37;;;;;;;4.57;0.93;;;23.30;40.50;;;;;;5048973;28;20118;-36
2022/04/19 10:21:07;;;;;;;2.80;0.88;;;23.30;41.20;;;;;;5048256;28;20052;-36
2022/04/19 10:23:38;;;;;;;5.60;1.60;;;23.40;41.00;;;;;;5048956;28;20043;-36
2022/04/19 10:26:22;;;;;;;2.25;1.10;;;23.60;41.20;;;;;;5048625;28;20045;-36
2022/04/19 10:28:53;;;;;;;3.00;1.70;;;23.70;39.70;;;;;;5048507;28;20063;-35
2022/04/19 10:31:31;;;;;;;2.85;1.42;;;23.50;41.80;;;;;;5048859;28;20140;-35
2022/04/19 10:34:02;;;;;;;2.67;1.25;;;23.20;40.50;;;;;;5036706;28;20106;-35
2022/04/19 10:36:40;;;;;;;3.80;1.02;;;23.30;39.90;;;;;;5028938;28;20061;-35
2022/04/19 10:39:11;;;;;;;2.42;1.23;;;23.10;39.90;;;;;;5029203;28;20041;-35
2022/04/19 10:41:58;;;;;;;2.88;1.30;;;22.90;41.10;;;;;;5028911;28;20442;-35
2022/04/19 10:44:40;;;;;;;3.65;1.75;;;23.00;41.00;;;;;;5028670;28;20509;-34
2022/04/19 10:47:13;;;;;;;3.47;1.77;;;22.20;41.40;;;;;;5029005;28;20044;-34
2022/04/19 10:49:49;;;;;;;4.25;1.13;;;20.90;43.30;;;;;;5029026;28;20049;-34
2022/04/19 10:52:36;;;;;;;3.60;1.77;;;19.70;45.90;;;;;;5028698;28;20041;-34
2022/04/19 10:55:23;;;;;;;4.13;1.60;;;18.80;46.70;;;;;;5028692;28;20056;-34
2022/04/19 10:58:06;;;;;;;6.30;1.65;;;18.00;48.90;;;;;;5028748;28;20045;-34
2022/04/19 11:00:41;;;;;;;2.67;1.92;;;17.40;49.60;;;;;;5028697;28;20045;-34
2022/04/19 11:03:08;;;;;;;4.30;1.92;;;17.00;51.00;;;;;;5028473;28;20049;-34
2022/04/19 11:05:45;;;;;;;4.75;1.98;;;16.70;52.10;;;;;;5028531;28;20073;-34
2022/04/19 11:08:20;;;;;;;10.25;1.85;;;16.80;52.70;;;;;;5028675;28;20045;-34
2022/04/19 11:10:46;;;;;;;5.22;2.00;;;16.80;52.80;;;;;;5028731;28;20045;-34
2022/04/19 11:13:12;;;;;;;4.85;1.83;;;16.60;52.20;;;;;;5028366;28;20041;-35
2022/04/19 11:15:38;;;;;;;3.03;1.38;;;16.60;52.20;;;;;;5028355;28;20045;-34
2022/04/19 11:18:29;;;;;;;4.47;1.80;;;16.60;52.20;;;;;;5028542;28;20168;-34
2022/04/19 11:21:12;;;;;;;3.28;2.20;;;16.70;51.90;;;;;;5028441;28;20446;-34
2022/04/19 11:23:46;;;;;;;3.17;1.20;;;16.70;51.50;;;;;;5027830;28;20550;-34
2022/04/19 11:26:41;;;;;;;3.65;1.52;;;16.60;52.00;;;;;;5028554;28;20072;-35
2022/04/19 11:29:10;;;;;;;4.75;1.63;;;16.60;52.20;;;;;;5019364;28;20061;-35
2022/04/19 11:31:56;;;;;;;6.32;2.00;;;16.40;52.10;;;;;;5042810;28;20051;-34
2022/04/19 11:34:22;;;;;;;5.20;1.67;;;16.40;53.00;;;;;;5040209;28;20053;-35
2022/04/19 11:36:48;;;;;;;4.50;1.77;;;16.60;53.30;;;;;;5032576;28;20052;-35
2022/04/19 11:47:48;;;;;;;2.53;1.05;;;16.90;52.10;;;;;;5031992;28;20076;-35
2022/04/19 11:50:29;;;;;;;2.60;1.02;;;16.80;51.60;;;;;;5032169;28;20037;-35
2022/04/19 11:52:55;;;;;;;1.73;0.60;;;16.80;51.50;;;;;;5031873;28;20495;-34
2022/04/19 11:55:25;;;;;;;1.98;0.52;;;16.80;51.50;;;;;;5032011;28;20084;-35
2022/04/19 11:58:09;;;;;;;1.58;0.55;;;16.90;51.50;;;;;;5031852;28;20045;-34
2022/04/19 12:00:36;;;;;;;9.50;2.10;;;17.00;51.40;;;;;;5031777;28;20084;-35
2022/04/19 12:03:21;;;;;;;4.07;1.50;;;17.10;51.10;;;;;;5031998;28;20068;-34
2022/04/19 12:05:47;;;;;;;3.53;1.20;;;17.00;51.20;;;;;;5032089;28;20052;-34
2022/04/19 12:08:13;;;;;;;5.57;1.40;;;17.00;51.50;;;;;;5031481;28;20049;-35
2022/04/19 12:10:40;;;;;;;3.67;1.52;;;16.90;53.00;;;;;;5031643;28;20130;-34
2022/04/19 12:13:05;;;;;;;3.03;0.90;;;16.80;53.70;;;;;;5031747;28;20179;-35
2022/04/19 12:15:40;;;;;;;5.47;0.90;;;16.90;53.10;;;;;;5031757;28;20129;-35
2022/04/19 12:18:06;;;;;;;3.58;1.20;;;17.00;52.10;;;;;;5030808;28;20081;-35
2022/04/19 12:20:44;;;;;;;1.98;0.98;;;17.10;51.60;;;;;;5031792;28;20081;-35
2022/04/19 12:23:20;;;;;;;3.25;1.38;;;17.00;51.30;;;;;;5031729;28;20519;-35
2022/04/19 12:26:11;;;;;;;2.33;0.98;;;17.00;51.40;;;;;;5030338;28;20251;-35
2022/04/19 12:28:44;;;;;;;2.50;1.00;;;16.90;51.10;;;;;;5031758;28;20120;-35
2022/04/19 12:31:34;;;;;;;2.50;0.95;;;16.80;51.70;;;;;;5041704;28;20088;-35
2022/04/19 12:34:01;;;;;;;2.33;1.00;;;16.80;52.20;;;;;;5050724;28;20049;-35
2022/04/19 12:36:28;;;;;;;4.43;1.25;;;16.80;51.80;;;;;;5051333;28;20525;-34
2022/04/19 12:39:01;;;;;;;3.88;1.00;;;16.80;52.30;;;;;;5051605;28;20048;-35
2022/04/19 12:41:54;;;;;;;3.38;1.30;;;16.80;52.80;;;;;;5051872;28;20139;-34
2022/04/19 12:44:20;;;;;;;5.57;1.67;;;16.90;52.50;;;;;;5049524;28;20048;-35
2022/04/19 12:46:51;;;;;;;5.03;2.13;;;16.80;52.70;;;;;;5051455;28;20406;-35
2022/04/19 12:49:25;;;;;;;3.53;2.22;;;16.90;53.10;;;;;;5051660;28;20059;-35
2022/04/19 12:52:05;;;;;;;4.30;1.42;;;16.80;53.20;;;;;;5051256;28;20083;-34
2022/04/19 12:54:33;;;;;;;3.28;1.45;;;16.70;53.60;;;;;;5050760;28;20098;-34
2022/04/19 12:57:02;;;;;;;3.95;1.92;;;16.50;54.10;;;;;;5050934;28;20514;-35
2022/04/19 12:59:32;;;;;;;7.18;1.70;;;16.50;54.70;;;;;;5050900;28;20048;-34
2022/04/19 13:01:59;;;;;;;6.25;2.05;;;16.70;54.10;;;;;;5050658;28;20037;-34
2022/04/19 13:04:25;;;;;;;5.25;1.70;;;16.80;53.40;;;;;;5050669;28;20071;-34
2022/04/19 13:12:23;;;;;;;3.63;2.25;;;16.70;54.30;;;;;;5051031;28;20056;-35
2022/04/19 13:14:52;;;;;;;4.03;2.05;;;16.60;53.90;;;;;;5050418;28;20045;-35
2022/04/19 13:17:18;;;;;;;6.47;1.67;;;16.60;54.20;;;;;;5050496;28;20072;-35
2022/04/19 13:19:45;;;;;;;2.15;1.50;;;16.60;53.60;;;;;;5031675;28;20041;-35
2022/04/19 13:22:12;;;;;;;3.53;1.52;;;16.70;53.90;;;;;;5065717;28;20120;-35
2022/04/19 13:24:38;;;;;;;4.72;1.00;;;16.80;53.70;;;;;;5050229;28;20048;-34
2022/04/19 13:27:07;;;;;;;4.45;1.90;;;16.80;53.60;;;;;;5050689;28;20061;-35
2022/04/19 13:29:38;;;;;;;3.05;1.52;;;16.90;52.90;;;;;;5050390;28;20226;-35
2022/04/19 13:32:04;;;;;;;3.65;1.33;;;16.90;52.40;;;;;;5050394;28;20574;-35
2022/04/19 13:34:30;;;;;;;3.90;1.48;;;17.00;52.60;;;;;;5045072;28;20095;-34
2022/04/19 13:36:59;;;;;;;3.55;1.00;;;17.00;52.20;;;;;;5030042;28;20483;-35
2022/04/19 13:39:25;;;;;;;3.60;1.58;;;17.10;52.60;;;;;;5030000;28;20781;-34
2022/04/19 13:41:51;;;;;;;3.60;1.10;;;17.20;52.70;;;;;;5030023;28;20037;-35
2022/04/19 13:44:17;;;;;;;3.72;1.25;;;17.30;53.10;;;;;;5028564;28;20677;-35